sensor_id;sensor_type;location;lat;lon;timestamp;P1;durP1;ratioP1;P2;durP2;ratioP2
31308;SDS011;17936;52.446;10.840;2023-02-23T00:00:41;27.75;;;13.48;;
31308;SDS011;17936;52.446;10.840;2023-02-23T00:03:08;27.50;;;12.68;;
31308;SDS011;17936;52.446;10.840;2023-02-23T00:05:35;25.08;;;12.82;;
31308;SDS011;17936;52.446;10.840;2023-02-23T00:08:01;31.30;;;13.02;;
31308;SDS011;17936;52.446;10.840;2023-02-23T00:10:27;27.42;;;13.50;;
31308;SDS011;17936;52.446;10.840;2023-02-23T00:12:59;31.70;;;13.32;;
31308;SDS011;17936;52.446;10.840;2023-02-23T00:15:28;27.90;;;12.65;;
31308;SDS011;17936;52.446;10.840;2023-02-23T00:17:54;36.08;;;13.65;;
31308;SDS011;17936;52.446;10.840;2023-02-23T00:20:21;34.42;;;13.55;;
31308;SDS011;17936;52.446;10.840;2023-02-23T00:22:52;33.83;;;13.05;;
31308;SDS011;17936;52.446;10.840;2023-02-23T00:25:19;30.30;;;12.55;;
31308;SDS011;17936;52.446;10.840;2023-02-23T00:27:45;26.30;;;13.13;;
31308;SDS011;17936;52.446;10.840;2023-02-23T00:30:11;27.75;;;12.68;;
31308;SDS011;17936;52.446;10.840;2023-02-23T00:32:37;29.42;;;13.52;;
31308;SDS011;17936;52.446;10.840;2023-02-23T00:35:03;32.40;;;13.48;;
31308;SDS011;17936;52.446;10.840;2023-02-23T00:37:29;29.20;;;13.32;;
31308;SDS011;17936;52.446;10.840;2023-02-23T00:39:55;23.13;;;11.98;;
31308;SDS011;17936;52.446;10.840;2023-02-23T00:42:21;29.00;;;12.77;;
31308;SDS011;17936;52.446;10.840;2023-02-23T00:44:47;24.83;;;11.98;;
31308;SDS011;17936;52.446;10.840;2023-02-23T00:47:13;31.02;;;13.43;;
31308;SDS011;17936;52.446;10.840;2023-02-23T00:49:39;33.28;;;13.00;;
31308;SDS011;17936;52.446;10.840;2023-02-23T00:52:04;29.13;;;11.95;;
31308;SDS011;17936;52.446;10.840;2023-02-23T00:54:30;31.33;;;13.52;;
31308;SDS011;17936;52.446;10.840;2023-02-23T00:56:55;31.33;;;12.68;;
31308;SDS011;17936;52.446;10.840;2023-02-23T00:59:21;26.02;;;13.15;;
31308;SDS011;17936;52.446;10.840;2023-02-23T01:01:46;26.48;;;12.80;;
31308;SDS011;17936;52.446;10.840;2023-02-23T01:04:12;26.92;;;13.00;;
31308;SDS011;17936;52.446;10.840;2023-02-23T01:06:38;30.73;;;12.18;;
31308;SDS011;17936;52.446;10.840;2023-02-23T01:09:06;32.65;;;12.98;;
31308;SDS011;17936;52.446;10.840;2023-02-23T01:11:37;27.90;;;12.88;;
31308;SDS011;17936;52.446;10.840;2023-02-23T01:14:05;27.73;;;12.02;;
31308;SDS011;17936;52.446;10.840;2023-02-23T01:16:32;24.92;;;12.20;;
31308;SDS011;17936;52.446;10.840;2023-02-23T01:19:00;28.02;;;11.75;;
31308;SDS011;17936;52.446;10.840;2023-02-23T01:21:32;28.60;;;12.27;;
31308;SDS011;17936;52.446;10.840;2023-02-23T01:23:59;25.27;;;12.47;;
31308;SDS011;17936;52.446;10.840;2023-02-23T01:26:27;26.45;;;11.70;;
31308;SDS011;17936;52.446;10.840;2023-02-23T01:28:56;25.73;;;12.38;;
31308;SDS011;17936;52.446;10.840;2023-02-23T01:31:24;29.20;;;12.32;;
31308;SDS011;17936;52.446;10.840;2023-02-23T01:33:55;28.00;;;11.10;;
31308;SDS011;17936;52.446;10.840;2023-02-23T01:36:24;22.77;;;11.23;;
31308;SDS011;17936;52.446;10.840;2023-02-23T01:38:52;26.45;;;11.82;;
31308;SDS011;17936;52.446;10.840;2023-02-23T01:41:20;21.77;;;11.23;;
31308;SDS011;17936;52.446;10.840;2023-02-23T01:43:56;29.92;;;12.45;;
31308;SDS011;17936;52.446;10.840;2023-02-23T01:46:24;27.50;;;12.50;;
31308;SDS011;17936;52.446;10.840;2023-02-23T01:48:49;24.80;;;11.35;;
31308;SDS011;17936;52.446;10.840;2023-02-23T01:51:18;24.45;;;11.32;;
31308;SDS011;17936;52.446;10.840;2023-02-23T01:53:47;29.83;;;12.25;;
31308;SDS011;17936;52.446;10.840;2023-02-23T01:56:20;24.03;;;12.07;;
31308;SDS011;17936;52.446;10.840;2023-02-23T01:58:49;25.95;;;12.13;;
31308;SDS011;17936;52.446;10.840;2023-02-23T02:01:17;26.52;;;11.30;;
31308;SDS011;17936;52.446;10.840;2023-02-23T02:03:50;23.63;;;11.45;;
31308;SDS011;17936;52.446;10.840;2023-02-23T02:06:22;26.60;;;11.98;;
31308;SDS011;17936;52.446;10.840;2023-02-23T02:08:52;27.92;;;11.95;;
31308;SDS011;17936;52.446;10.840;2023-02-23T02:11:20;25.70;;;11.43;;
31308;SDS011;17936;52.446;10.840;2023-02-23T02:13:54;28.23;;;12.57;;
31308;SDS011;17936;52.446;10.840;2023-02-23T02:37:08;26.30;;;10.68;;
31308;SDS011;17936;52.446;10.840;2023-02-23T02:39:48;23.10;;;10.73;;
31308;SDS011;17936;52.446;10.840;2023-02-23T02:42:42;25.02;;;10.45;;
31308;SDS011;17936;52.446;10.840;2023-02-23T02:45:38;22.25;;;10.48;;
31308;SDS011;17936;52.446;10.840;2023-02-23T02:48:34;23.05;;;10.27;;
31308;SDS011;17936;52.446;10.840;2023-02-23T02:51:20;25.75;;;11.30;;
31308;SDS011;17936;52.446;10.840;2023-02-23T02:56:31;19.10;;;9.85;;
31308;SDS011;17936;52.446;10.840;2023-02-23T02:59:04;23.30;;;11.73;;
31308;SDS011;17936;52.446;10.840;2023-02-23T03:01:50;22.45;;;11.30;;
31308;SDS011;17936;52.446;10.840;2023-02-23T03:04:34;20.92;;;10.30;;
31308;SDS011;17936;52.446;10.840;2023-02-23T03:10:13;25.90;;;10.40;;
31308;SDS011;17936;52.446;10.840;2023-02-23T03:13:15;23.77;;;11.25;;
31308;SDS011;17936;52.446;10.840;2023-02-23T03:18:56;27.88;;;10.88;;
31308;SDS011;17936;52.446;10.840;2023-02-23T03:21:57;22.83;;;11.07;;
31308;SDS011;17936;52.446;10.840;2023-02-23T03:25:23;25.70;;;11.00;;
31308;SDS011;17936;52.446;10.840;2023-02-23T03:28:31;30.30;;;11.73;;
31308;SDS011;17936;52.446;10.840;2023-02-23T03:31:20;24.85;;;11.30;;
31308;SDS011;17936;52.446;10.840;2023-02-23T03:34:30;25.70;;;11.75;;
31308;SDS011;17936;52.446;10.840;2023-02-23T03:37:30;24.33;;;10.85;;
31308;SDS011;17936;52.446;10.840;2023-02-23T03:40:25;24.33;;;11.60;;
31308;SDS011;17936;52.446;10.840;2023-02-23T03:43:15;18.83;;;9.52;;
31308;SDS011;17936;52.446;10.840;2023-02-23T03:46:03;25.63;;;11.80;;
31308;SDS011;17936;52.446;10.840;2023-02-23T03:48:52;22.85;;;10.32;;
31308;SDS011;17936;52.446;10.840;2023-02-23T03:51:38;19.98;;;10.32;;
31308;SDS011;17936;52.446;10.840;2023-02-23T03:57:35;19.80;;;10.15;;
31308;SDS011;17936;52.446;10.840;2023-02-23T04:00:24;25.95;;;11.18;;
31308;SDS011;17936;52.446;10.840;2023-02-23T04:03:15;30.35;;;11.20;;
31308;SDS011;17936;52.446;10.840;2023-02-23T04:06:01;19.45;;;10.30;;
31308;SDS011;17936;52.446;10.840;2023-02-23T04:08:49;21.27;;;9.68;;
31308;SDS011;17936;52.446;10.840;2023-02-23T04:11:49;23.23;;;9.93;;
31308;SDS011;17936;52.446;10.840;2023-02-23T04:14:44;19.63;;;9.93;;
31308;SDS011;17936;52.446;10.840;2023-02-23T04:17:28;21.63;;;9.77;;
31308;SDS011;17936;52.446;10.840;2023-02-23T04:19:54;30.27;;;11.13;;
31308;SDS011;17936;52.446;10.840;2023-02-23T04:22:21;21.58;;;10.70;;
31308;SDS011;17936;52.446;10.840;2023-02-23T04:24:47;21.48;;;10.07;;
31308;SDS011;17936;52.446;10.840;2023-02-23T04:27:13;17.85;;;9.15;;
31308;SDS011;17936;52.446;10.840;2023-02-23T04:29:39;22.63;;;10.27;;
31308;SDS011;17936;52.446;10.840;2023-02-23T04:32:06;21.27;;;10.18;;
31308;SDS011;17936;52.446;10.840;2023-02-23T04:34:32;23.77;;;11.38;;
31308;SDS011;17936;52.446;10.840;2023-02-23T04:36:57;20.33;;;10.35;;
31308;SDS011;17936;52.446;10.840;2023-02-23T04:39:23;19.92;;;10.32;;
31308;SDS011;17936;52.446;10.840;2023-02-23T04:41:49;24.77;;;11.18;;
31308;SDS011;17936;52.446;10.840;2023-02-23T04:44:15;25.15;;;11.82;;
31308;SDS011;17936;52.446;10.840;2023-02-23T04:46:41;21.25;;;10.52;;
31308;SDS011;17936;52.446;10.840;2023-02-23T04:49:07;23.52;;;10.07;;
31308;SDS011;17936;52.446;10.840;2023-02-23T04:51:32;29.63;;;12.95;;
31308;SDS011;17936;52.446;10.840;2023-02-23T04:53:59;41.08;;;18.38;;
31308;SDS011;17936;52.446;10.840;2023-02-23T04:56:26;44.42;;;22.05;;
31308;SDS011;17936;52.446;10.840;2023-02-23T04:58:51;45.53;;;22.23;;
31308;SDS011;17936;52.446;10.840;2023-02-23T05:01:17;48.05;;;22.42;;
31308;SDS011;17936;52.446;10.840;2023-02-23T05:03:44;55.95;;;23.98;;
31308;SDS011;17936;52.446;10.840;2023-02-23T05:06:10;45.72;;;23.05;;
31308;SDS011;17936;52.446;10.840;2023-02-23T05:08:36;48.17;;;24.33;;
31308;SDS011;17936;52.446;10.840;2023-02-23T05:11:02;55.00;;;23.52;;
31308;SDS011;17936;52.446;10.840;2023-02-23T05:13:27;47.53;;;23.88;;
31308;SDS011;17936;52.446;10.840;2023-02-23T05:15:56;52.83;;;24.65;;
31308;SDS011;17936;52.446;10.840;2023-02-23T05:18:21;45.70;;;24.45;;
31308;SDS011;17936;52.446;10.840;2023-02-23T05:20:49;51.50;;;25.35;;
31308;SDS011;17936;52.446;10.840;2023-02-23T05:23:14;50.38;;;24.90;;
31308;SDS011;17936;52.446;10.840;2023-02-23T05:25:40;52.35;;;25.33;;
31308;SDS011;17936;52.446;10.840;2023-02-23T05:28:05;48.20;;;25.60;;
31308;SDS011;17936;52.446;10.840;2023-02-23T05:30:31;59.55;;;26.10;;
31308;SDS011;17936;52.446;10.840;2023-02-23T05:32:57;53.22;;;25.95;;
31308;SDS011;17936;52.446;10.840;2023-02-23T05:35:22;52.13;;;26.08;;
31308;SDS011;17936;52.446;10.840;2023-02-23T05:37:48;54.70;;;26.88;;
31308;SDS011;17936;52.446;10.840;2023-02-23T05:40:13;58.65;;;25.73;;
31308;SDS011;17936;52.446;10.840;2023-02-23T05:42:39;53.95;;;26.88;;
31308;SDS011;17936;52.446;10.840;2023-02-23T05:45:05;57.25;;;27.13;;
31308;SDS011;17936;52.446;10.840;2023-02-23T05:47:31;49.08;;;25.92;;
31308;SDS011;17936;52.446;10.840;2023-02-23T05:49:59;55.05;;;27.17;;
31308;SDS011;17936;52.446;10.840;2023-02-23T05:52:26;61.28;;;27.13;;
31308;SDS011;17936;52.446;10.840;2023-02-23T05:54:52;51.47;;;27.52;;
31308;SDS011;17936;52.446;10.840;2023-02-23T05:57:17;59.35;;;27.98;;
31308;SDS011;17936;52.446;10.840;2023-02-23T05:59:43;53.92;;;28.08;;
31308;SDS011;17936;52.446;10.840;2023-02-23T06:02:08;55.00;;;27.25;;
31308;SDS011;17936;52.446;10.840;2023-02-23T06:04:34;59.85;;;29.35;;
31308;SDS011;17936;52.446;10.840;2023-02-23T06:06:59;56.58;;;28.73;;
31308;SDS011;17936;52.446;10.840;2023-02-23T06:09:25;59.85;;;29.20;;
31308;SDS011;17936;52.446;10.840;2023-02-23T06:11:50;66.15;;;30.42;;
31308;SDS011;17936;52.446;10.840;2023-02-23T06:14:16;61.70;;;29.13;;
31308;SDS011;17936;52.446;10.840;2023-02-23T06:16:41;59.08;;;28.92;;
31308;SDS011;17936;52.446;10.840;2023-02-23T06:19:09;57.75;;;29.40;;
31308;SDS011;17936;52.446;10.840;2023-02-23T06:21:35;59.17;;;28.42;;
31308;SDS011;17936;52.446;10.840;2023-02-23T06:24:00;60.05;;;29.52;;
31308;SDS011;17936;52.446;10.840;2023-02-23T06:26:27;65.07;;;30.27;;
31308;SDS011;17936;52.446;10.840;2023-02-23T06:28:53;62.17;;;30.05;;
31308;SDS011;17936;52.446;10.840;2023-02-23T06:31:18;69.32;;;31.50;;
31308;SDS011;17936;52.446;10.840;2023-02-23T06:33:44;63.95;;;29.67;;
31308;SDS011;17936;52.446;10.840;2023-02-23T06:36:09;69.95;;;32.88;;
31308;SDS011;17936;52.446;10.840;2023-02-23T06:38:35;68.78;;;31.65;;
31308;SDS011;17936;52.446;10.840;2023-02-23T06:41:08;64.97;;;31.17;;
31308;SDS011;17936;52.446;10.840;2023-02-23T06:43:34;67.15;;;31.38;;
31308;SDS011;17936;52.446;10.840;2023-02-23T06:46:00;62.50;;;31.15;;
31308;SDS011;17936;52.446;10.840;2023-02-23T06:48:25;63.13;;;31.55;;
31308;SDS011;17936;52.446;10.840;2023-02-23T06:50:51;65.47;;;30.55;;
31308;SDS011;17936;52.446;10.840;2023-02-23T06:53:17;71.60;;;31.95;;
31308;SDS011;17936;52.446;10.840;2023-02-23T06:55:44;68.72;;;30.17;;
31308;SDS011;17936;52.446;10.840;2023-02-23T06:58:10;63.10;;;30.65;;
31308;SDS011;17936;52.446;10.840;2023-02-23T07:00:36;63.88;;;31.50;;
31308;SDS011;17936;52.446;10.840;2023-02-23T07:03:03;69.30;;;34.38;;
31308;SDS011;17936;52.446;10.840;2023-02-23T07:05:28;70.15;;;32.35;;
31308;SDS011;17936;52.446;10.840;2023-02-23T07:07:54;65.03;;;32.22;;
31308;SDS011;17936;52.446;10.840;2023-02-23T07:10:19;66.05;;;32.22;;
31308;SDS011;17936;52.446;10.840;2023-02-23T07:12:45;73.20;;;33.40;;
31308;SDS011;17936;52.446;10.840;2023-02-23T07:15:11;69.88;;;33.88;;
31308;SDS011;17936;52.446;10.840;2023-02-23T07:17:36;65.35;;;32.67;;
31308;SDS011;17936;52.446;10.840;2023-02-23T07:20:02;75.47;;;34.13;;
31308;SDS011;17936;52.446;10.840;2023-02-23T07:22:28;75.65;;;34.45;;
31308;SDS011;17936;52.446;10.840;2023-02-23T07:24:55;65.10;;;32.60;;
31308;SDS011;17936;52.446;10.840;2023-02-23T07:27:21;76.93;;;33.42;;
31308;SDS011;17936;52.446;10.840;2023-02-23T07:29:47;70.47;;;33.65;;
31308;SDS011;17936;52.446;10.840;2023-02-23T07:32:12;72.78;;;33.53;;
31308;SDS011;17936;52.446;10.840;2023-02-23T07:34:37;69.15;;;33.25;;
31308;SDS011;17936;52.446;10.840;2023-02-23T07:37:03;62.55;;;31.38;;
31308;SDS011;17936;52.446;10.840;2023-02-23T07:39:29;66.55;;;34.25;;
31308;SDS011;17936;52.446;10.840;2023-02-23T07:41:55;79.07;;;35.35;;
31308;SDS011;17936;52.446;10.840;2023-02-23T07:44:21;69.97;;;35.13;;
31308;SDS011;17936;52.446;10.840;2023-02-23T07:46:47;71.60;;;33.15;;
31308;SDS011;17936;52.446;10.840;2023-02-23T07:49:13;67.18;;;34.13;;
31308;SDS011;17936;52.446;10.840;2023-02-23T07:51:39;67.05;;;32.88;;
31308;SDS011;17936;52.446;10.840;2023-02-23T07:54:05;73.13;;;34.08;;
31308;SDS011;17936;52.446;10.840;2023-02-23T07:56:31;68.45;;;33.92;;
31308;SDS011;17936;52.446;10.840;2023-02-23T07:58:57;72.10;;;34.10;;
31308;SDS011;17936;52.446;10.840;2023-02-23T08:01:22;69.78;;;32.97;;
31308;SDS011;17936;52.446;10.840;2023-02-23T08:03:48;68.47;;;33.00;;
31308;SDS011;17936;52.446;10.840;2023-02-23T08:06:15;66.25;;;33.83;;
31308;SDS011;17936;52.446;10.840;2023-02-23T08:08:41;67.55;;;34.33;;
31308;SDS011;17936;52.446;10.840;2023-02-23T08:11:07;66.43;;;34.70;;
31308;SDS011;17936;52.446;10.840;2023-02-23T08:13:32;68.53;;;34.85;;
31308;SDS011;17936;52.446;10.840;2023-02-23T08:15:58;68.70;;;34.30;;
31308;SDS011;17936;52.446;10.840;2023-02-23T08:18:24;75.65;;;35.13;;
31308;SDS011;17936;52.446;10.840;2023-02-23T08:20:50;70.57;;;33.58;;
31308;SDS011;17936;52.446;10.840;2023-02-23T08:23:22;64.18;;;33.65;;
31308;SDS011;17936;52.446;10.840;2023-02-23T08:25:47;63.88;;;33.65;;
31308;SDS011;17936;52.446;10.840;2023-02-23T08:28:13;63.80;;;33.88;;
31308;SDS011;17936;52.446;10.840;2023-02-23T08:30:39;65.88;;;33.38;;
31308;SDS011;17936;52.446;10.840;2023-02-23T08:33:05;72.80;;;34.63;;
31308;SDS011;17936;52.446;10.840;2023-02-23T08:35:31;65.18;;;33.45;;
31308;SDS011;17936;52.446;10.840;2023-02-23T08:37:56;67.00;;;33.67;;
31308;SDS011;17936;52.446;10.840;2023-02-23T08:40:22;69.70;;;34.92;;
31308;SDS011;17936;52.446;10.840;2023-02-23T08:42:48;59.88;;;32.03;;
31308;SDS011;17936;52.446;10.840;2023-02-23T08:45:15;66.47;;;33.00;;
31308;SDS011;17936;52.446;10.840;2023-02-23T08:47:42;63.53;;;32.78;;
31308;SDS011;17936;52.446;10.840;2023-02-23T08:50:08;71.65;;;33.50;;
31308;SDS011;17936;52.446;10.840;2023-02-23T08:52:35;68.15;;;34.22;;
31308;SDS011;17936;52.446;10.840;2023-02-23T08:55:01;71.28;;;35.10;;
31308;SDS011;17936;52.446;10.840;2023-02-23T08:57:26;70.30;;;34.70;;
31308;SDS011;17936;52.446;10.840;2023-02-23T08:59:52;65.70;;;32.65;;
31308;SDS011;17936;52.446;10.840;2023-02-23T09:02:17;67.10;;;33.60;;
31308;SDS011;17936;52.446;10.840;2023-02-23T09:04:43;78.90;;;35.45;;
31308;SDS011;17936;52.446;10.840;2023-02-23T09:07:12;66.68;;;34.20;;
31308;SDS011;17936;52.446;10.840;2023-02-23T09:09:39;73.47;;;35.42;;
31308;SDS011;17936;52.446;10.840;2023-02-23T09:12:05;72.38;;;34.10;;
31308;SDS011;17936;52.446;10.840;2023-02-23T09:14:30;76.28;;;36.03;;
31308;SDS011;17936;52.446;10.840;2023-02-23T09:16:56;72.07;;;34.55;;
31308;SDS011;17936;52.446;10.840;2023-02-23T09:19:22;76.63;;;35.90;;
31308;SDS011;17936;52.446;10.840;2023-02-23T09:21:47;74.68;;;33.85;;
31308;SDS011;17936;52.446;10.840;2023-02-23T09:24:13;68.72;;;34.67;;
31308;SDS011;17936;52.446;10.840;2023-02-23T09:26:38;74.90;;;37.47;;
31308;SDS011;17936;52.446;10.840;2023-02-23T09:29:06;77.78;;;36.30;;
31308;SDS011;17936;52.446;10.840;2023-02-23T09:31:32;66.40;;;32.42;;
31308;SDS011;17936;52.446;10.840;2023-02-23T09:33:58;69.32;;;34.42;;
31308;SDS011;17936;52.446;10.840;2023-02-23T09:36:26;70.95;;;34.50;;
31308;SDS011;17936;52.446;10.840;2023-02-23T09:38:53;73.63;;;34.13;;
31308;SDS011;17936;52.446;10.840;2023-02-23T09:46:34;69.20;;;33.33;;
31308;SDS011;17936;52.446;10.840;2023-02-23T09:49:21;67.22;;;33.15;;
31308;SDS011;17936;52.446;10.840;2023-02-23T09:51:50;69.85;;;34.55;;
31308;SDS011;17936;52.446;10.840;2023-02-23T09:54:22;62.10;;;32.92;;
31308;SDS011;17936;52.446;10.840;2023-02-23T09:56:51;61.00;;;31.77;;
31308;SDS011;17936;52.446;10.840;2023-02-23T09:59:20;63.30;;;32.47;;
31308;SDS011;17936;52.446;10.840;2023-02-23T10:04:27;67.18;;;33.33;;
31308;SDS011;17936;52.446;10.840;2023-02-23T10:17:28;64.43;;;33.40;;
31308;SDS011;17936;52.446;10.840;2023-02-23T10:22:30;69.65;;;33.50;;
31308;SDS011;17936;52.446;10.840;2023-02-23T10:25:12;78.95;;;34.90;;
31308;SDS011;17936;52.446;10.840;2023-02-23T10:27:43;64.82;;;32.70;;
31308;SDS011;17936;52.446;10.840;2023-02-23T10:32:50;69.65;;;34.15;;
31308;SDS011;17936;52.446;10.840;2023-02-23T10:35:24;71.43;;;33.22;;
31308;SDS011;17936;52.446;10.840;2023-02-23T10:37:52;68.45;;;34.17;;
31308;SDS011;17936;52.446;10.840;2023-02-23T10:40:20;66.10;;;33.70;;
31308;SDS011;17936;52.446;10.840;2023-02-23T10:42:48;68.78;;;32.60;;
31308;SDS011;17936;52.446;10.840;2023-02-23T10:45:16;65.68;;;33.17;;
31308;SDS011;17936;52.446;10.840;2023-02-23T10:47:48;67.63;;;33.28;;
31308;SDS011;17936;52.446;10.840;2023-02-23T10:50:21;63.30;;;30.23;;
31308;SDS011;17936;52.446;10.840;2023-02-23T10:52:51;64.70;;;31.60;;
31308;SDS011;17936;52.446;10.840;2023-02-23T10:55:20;59.78;;;30.33;;
31308;SDS011;17936;52.446;10.840;2023-02-23T10:57:47;60.10;;;30.20;;
31308;SDS011;17936;52.446;10.840;2023-02-23T11:02:43;53.97;;;27.60;;
31308;SDS011;17936;52.446;10.840;2023-02-23T11:08:16;53.97;;;26.77;;
31308;SDS011;17936;52.446;10.840;2023-02-23T11:13:45;49.10;;;25.80;;
31308;SDS011;17936;52.446;10.840;2023-02-23T11:16:13;59.63;;;28.63;;
31308;SDS011;17936;52.446;10.840;2023-02-23T11:18:47;52.50;;;27.02;;
31308;SDS011;17936;52.446;10.840;2023-02-23T11:23:57;53.55;;;26.20;;
31308;SDS011;17936;52.446;10.840;2023-02-23T11:26:42;50.95;;;25.83;;
31308;SDS011;17936;52.446;10.840;2023-02-23T11:29:16;52.47;;;26.45;;
31308;SDS011;17936;52.446;10.840;2023-02-23T11:31:59;47.47;;;25.25;;
31308;SDS011;17936;52.446;10.840;2023-02-23T11:34:32;49.55;;;25.23;;
31308;SDS011;17936;52.446;10.840;2023-02-23T11:39:31;49.45;;;25.13;;
31308;SDS011;17936;52.446;10.840;2023-02-23T11:44:38;52.65;;;25.05;;
31308;SDS011;17936;52.446;10.840;2023-02-23T11:47:04;51.03;;;25.35;;
31308;SDS011;17936;52.446;10.840;2023-02-23T11:49:37;43.63;;;22.95;;
31308;SDS011;17936;52.446;10.840;2023-02-23T11:52:03;38.90;;;21.95;;
31308;SDS011;17936;52.446;10.840;2023-02-23T11:54:38;40.33;;;21.10;;
31308;SDS011;17936;52.446;10.840;2023-02-23T11:57:18;43.08;;;22.45;;
31308;SDS011;17936;52.446;10.840;2023-02-23T11:59:49;38.08;;;20.55;;
31308;SDS011;17936;52.446;10.840;2023-02-23T12:02:22;40.50;;;21.13;;
31308;SDS011;17936;52.446;10.840;2023-02-23T12:05:04;43.45;;;22.63;;
31308;SDS011;17936;52.446;10.840;2023-02-23T12:10:17;37.80;;;20.45;;
31308;SDS011;17936;52.446;10.840;2023-02-23T12:18:41;33.35;;;18.92;;
31308;SDS011;17936;52.446;10.840;2023-02-23T12:21:14;34.40;;;20.25;;
31308;SDS011;17936;52.446;10.840;2023-02-23T12:24:17;33.55;;;19.83;;
31308;SDS011;17936;52.446;10.840;2023-02-23T12:32:48;36.95;;;19.55;;
31308;SDS011;17936;52.446;10.840;2023-02-23T12:35:39;37.13;;;20.42;;
31308;SDS011;17936;52.446;10.840;2023-02-23T12:40:39;36.58;;;20.30;;
31308;SDS011;17936;52.446;10.840;2023-02-23T12:43:14;35.85;;;19.88;;
31308;SDS011;17936;52.446;10.840;2023-02-23T12:45:54;38.08;;;21.13;;
31308;SDS011;17936;52.446;10.840;2023-02-23T12:48:45;32.75;;;19.75;;
31308;SDS011;17936;52.446;10.840;2023-02-23T12:51:23;36.53;;;20.45;;
31308;SDS011;17936;52.446;10.840;2023-02-23T12:53:54;35.05;;;19.83;;
31308;SDS011;17936;52.446;10.840;2023-02-23T12:59:13;34.90;;;19.35;;
31308;SDS011;17936;52.446;10.840;2023-02-23T13:01:56;34.67;;;19.58;;
31308;SDS011;17936;52.446;10.840;2023-02-23T13:07:13;32.83;;;19.35;;
31308;SDS011;17936;52.446;10.840;2023-02-23T13:17:58;33.58;;;19.88;;
31308;SDS011;17936;52.446;10.840;2023-02-23T13:20:41;32.05;;;19.15;;
31308;SDS011;17936;52.446;10.840;2023-02-23T13:25:50;34.95;;;19.77;;
31308;SDS011;17936;52.446;10.840;2023-02-23T13:31:10;36.38;;;20.13;;
31308;SDS011;17936;52.446;10.840;2023-02-23T13:33:51;41.80;;;21.83;;
31308;SDS011;17936;52.446;10.840;2023-02-23T13:36:18;35.88;;;21.50;;
31308;SDS011;17936;52.446;10.840;2023-02-23T13:38:50;36.95;;;20.83;;
31308;SDS011;17936;52.446;10.840;2023-02-23T13:49:48;36.03;;;20.25;;
31308;SDS011;17936;52.446;10.840;2023-02-23T13:54:57;37.78;;;20.48;;
31308;SDS011;17936;52.446;10.840;2023-02-23T13:57:27;35.20;;;20.20;;
31308;SDS011;17936;52.446;10.840;2023-02-23T13:59:56;34.58;;;20.73;;
31308;SDS011;17936;52.446;10.840;2023-02-23T14:02:37;78.20;;;37.40;;
31308;SDS011;17936;52.446;10.840;2023-02-23T14:07:53;68.03;;;32.70;;
31308;SDS011;17936;52.446;10.840;2023-02-23T14:10:24;58.33;;;31.40;;
31308;SDS011;17936;52.446;10.840;2023-02-23T14:13:03;41.50;;;23.45;;
31308;SDS011;17936;52.446;10.840;2023-02-23T14:18:02;41.50;;;21.35;;
31308;SDS011;17936;52.446;10.840;2023-02-23T14:29:30;36.65;;;20.77;;
31308;SDS011;17936;52.446;10.840;2023-02-23T14:34:55;35.20;;;20.38;;
31308;SDS011;17936;52.446;10.840;2023-02-23T14:37:27;35.63;;;19.67;;
31308;SDS011;17936;52.446;10.840;2023-02-23T14:42:38;37.53;;;19.50;;
31308;SDS011;17936;52.446;10.840;2023-02-23T14:45:26;33.15;;;18.38;;
31308;SDS011;17936;52.446;10.840;2023-02-23T14:48:06;35.72;;;19.60;;
31308;SDS011;17936;52.446;10.840;2023-02-23T14:50:36;33.30;;;18.13;;
31308;SDS011;17936;52.446;10.840;2023-02-23T14:53:04;36.20;;;18.50;;
31308;SDS011;17936;52.446;10.840;2023-02-23T14:55:38;32.28;;;18.10;;
31308;SDS011;17936;52.446;10.840;2023-02-23T14:58:27;35.95;;;19.55;;
31308;SDS011;17936;52.446;10.840;2023-02-23T15:00:57;31.45;;;17.85;;
31308;SDS011;17936;52.446;10.840;2023-02-23T15:03:23;33.45;;;17.63;;
31308;SDS011;17936;52.446;10.840;2023-02-23T15:05:50;31.85;;;16.85;;
31308;SDS011;17936;52.446;10.840;2023-02-23T15:08:20;33.83;;;17.80;;
31308;SDS011;17936;52.446;10.840;2023-02-23T15:10:49;32.88;;;17.58;;
31308;SDS011;17936;52.446;10.840;2023-02-23T15:13:41;32.67;;;16.85;;
31308;SDS011;17936;52.446;10.840;2023-02-23T15:16:12;32.70;;;17.00;;
31308;SDS011;17936;52.446;10.840;2023-02-23T15:18:42;33.38;;;18.05;;
31308;SDS011;17936;52.446;10.840;2023-02-23T15:21:12;37.80;;;18.52;;
31308;SDS011;17936;52.446;10.840;2023-02-23T15:23:43;36.35;;;18.05;;
31308;SDS011;17936;52.446;10.840;2023-02-23T15:28:55;35.00;;;18.17;;
31308;SDS011;17936;52.446;10.840;2023-02-23T15:31:50;33.72;;;17.13;;
31308;SDS011;17936;52.446;10.840;2023-02-23T15:34:18;37.33;;;18.25;;
31308;SDS011;17936;52.446;10.840;2023-02-23T15:36:47;40.50;;;20.02;;
31308;SDS011;17936;52.446;10.840;2023-02-23T15:39:27;32.08;;;17.77;;
31308;SDS011;17936;52.446;10.840;2023-02-23T15:42:06;39.43;;;19.03;;
31308;SDS011;17936;52.446;10.840;2023-02-23T15:44:37;38.10;;;18.10;;
31308;SDS011;17936;52.446;10.840;2023-02-23T15:47:04;38.55;;;18.77;;
31308;SDS011;17936;52.446;10.840;2023-02-23T15:49:34;34.28;;;17.55;;
31308;SDS011;17936;52.446;10.840;2023-02-23T15:52:08;39.35;;;17.60;;
31308;SDS011;17936;52.446;10.840;2023-02-23T15:54:53;32.08;;;16.55;;
31308;SDS011;17936;52.446;10.840;2023-02-23T15:57:31;36.05;;;16.73;;
31308;SDS011;17936;52.446;10.840;2023-02-23T16:00:09;34.85;;;16.42;;
31308;SDS011;17936;52.446;10.840;2023-02-23T16:02:51;34.30;;;16.85;;
31308;SDS011;17936;52.446;10.840;2023-02-23T16:05:20;36.83;;;17.30;;
31308;SDS011;17936;52.446;10.840;2023-02-23T16:07:46;42.92;;;19.35;;
31308;SDS011;17936;52.446;10.840;2023-02-23T16:10:22;37.80;;;17.08;;
31308;SDS011;17936;52.446;10.840;2023-02-23T16:12:50;45.70;;;20.05;;
31308;SDS011;17936;52.446;10.840;2023-02-23T16:15:27;50.83;;;21.73;;
31308;SDS011;17936;52.446;10.840;2023-02-23T16:18:00;62.20;;;24.65;;
31308;SDS011;17936;52.446;10.840;2023-02-23T16:23:05;64.43;;;27.27;;
31308;SDS011;17936;52.446;10.840;2023-02-23T16:25:39;69.68;;;30.55;;
31308;SDS011;17936;52.446;10.840;2023-02-23T16:28:08;53.15;;;24.25;;
31308;SDS011;17936;52.446;10.840;2023-02-23T16:30:39;52.72;;;23.40;;
31308;SDS011;17936;52.446;10.840;2023-02-23T16:33:44;50.47;;;22.27;;
31308;SDS011;17936;52.446;10.840;2023-02-23T16:36:35;43.63;;;18.63;;
31308;SDS011;17936;52.446;10.840;2023-02-23T16:39:03;37.03;;;16.83;;
31308;SDS011;17936;52.446;10.840;2023-02-23T16:41:34;40.92;;;17.60;;
31308;SDS011;17936;52.446;10.840;2023-02-23T16:44:00;38.08;;;17.38;;
31308;SDS011;17936;52.446;10.840;2023-02-23T16:46:29;41.72;;;17.73;;
31308;SDS011;17936;52.446;10.840;2023-02-23T16:48:57;44.88;;;18.40;;
31308;SDS011;17936;52.446;10.840;2023-02-23T16:51:33;43.30;;;16.48;;
31308;SDS011;17936;52.446;10.840;2023-02-23T16:53:59;40.92;;;17.42;;
31308;SDS011;17936;52.446;10.840;2023-02-23T16:56:28;43.88;;;18.83;;